• Join FlightAware (Why Join?)
  • Login
  • US Flag 
07:40AM EST


 

Airport Tracker/Info


-or-


 

Live Flight TrackerFlight Track Log ✈ SWA3636 ✈ 02-Dec-2013 ✈ KABQ - KHOU

Flight Track Log - Related Links

Times and Time Zones

All times are in EST time to prevent confusion due to time zone crossing. See the SWA3636 flight status page for this flight to view local times or setup timezone preferences in your user account.

Time Position Orientation Groundspeed Altitude Reporting Facility
EST Latitude Longitude Course Direction KTS MPH feet Rate Location/Type
10:30PM 35.0361 -106.5733 116° Southeast 165 190 6,800  Level Albuquerque Center
10:31PM 34.9994 -106.5308 136° Southeast 223 257 9,000 3,180 Climbing Albuquerque Center
10:32PM 34.9114 -106.4731 152° Southeast 328 377 13,200 4,020 Climbing Albuquerque Center
10:33PM 34.8394 -106.3811 134° Southeast 374 430 17,300 3,840 Climbing Albuquerque Center
10:34PM 34.7853 -106.2700 121° Southeast 395 455 21,100 3,420 Climbing Albuquerque Center
10:35PM 34.7261 -106.1439 120° Southeast 425 489 24,400 3,120 Climbing Albuquerque Center
10:36PM 34.6633 -106.0128 120° Southeast 445 512 27,500 3,120 Climbing Albuquerque Center
10:37PM 34.5875 -105.8561 120° Southeast 457 526 30,800 2,580 Climbing Albuquerque Center
10:38PM 34.5181 -105.7147 121° Southeast 474 545 32,800 2,220 Climbing Albuquerque Center
10:39PM 34.4467 -105.5692 121° Southeast 492 566 35,400 2,040 Climbing Albuquerque Center
10:40PM 34.3761 -105.4244 121° Southeast 496 571 37,100 1,500 Climbing Albuquerque Center
10:41PM 34.3031 -105.2767 121° Southeast 503 579 38,500 1,260 Climbing Albuquerque Center
10:42PM 34.2261 -105.1219 121° Southeast 523 602 39,700 1,200 Climbing Albuquerque Center
10:43PM 34.1486 -104.9661 121° Southeast 535 616 41,000 600 Climbing Albuquerque Center
10:44PM 34.0703 -104.8075 121° Southeast 543 625 41,000  Level Albuquerque Center
10:45PM 33.9839 -104.6367 121° Southeast 544 626 41,000  Level Albuquerque Center
10:46PM 33.9000 -104.4708 121° Southeast 540 621 41,000  Level Albuquerque Center
10:47PM 33.8217 -104.3153 121° Southeast 542 624 41,000  Level Albuquerque Center
10:48PM 33.7411 -104.1575 122° Southeast 550 633 41,000  Level Albuquerque Center
10:49PM 33.6625 -104.0019 121° Southeast 545 627 41,000  Level Albuquerque Center
10:50PM 33.5764 -103.8331 121° Southeast 549 632 41,000  Level Albuquerque Center
10:51PM 33.4956 -103.6772 122° Southeast 550 633 41,000  Level Albuquerque Center
10:53PM 33.4161 -103.5183 121° Southeast 555 639 41,000  Level Albuquerque Center
10:54PM 33.3350 -103.3647 122° Southeast 552 635 41,000  Level Albuquerque Center
10:55PM 33.2539 -103.2108 122° Southeast 550 633 41,000  Level Albuquerque Center
10:56PM 33.1097 -102.9372 122° Southeast 542 624 41,000  Level Fort Worth Center
10:57PM 33.0292 -102.7836 122° Southeast 545 627 41,000  Level Fort Worth Center
10:58PM 32.9478 -102.6303 122° Southeast 547 629 41,000  Level Fort Worth Center
10:59PM 32.8669 -102.4769 122° Southeast 544 626 41,000  Level Fort Worth Center
11:00PM 32.7842 -102.3211 122° Southeast 548 631 41,000  Level Fort Worth Center
11:01PM 32.7006 -102.1661 123° Southeast 548 631 41,000  Level Fort Worth Center
11:02PM 32.6169 -102.0147 123° Southeast 544 626 41,000  Level Fort Worth Center
11:03PM 32.5350 -101.8633 123° Southeast 543 625 41,000  Level Fort Worth Center
11:04PM 32.4528 -101.7128 123° Southeast 544 626 41,000  Level Fort Worth Center
11:05PM 32.3717 -101.5639 123° Southeast 540 621 41,000  Level Fort Worth Center
11:06PM 32.2897 -101.4153 123° Southeast 541 623 41,000  Level Fort Worth Center
11:07PM 32.2075 -101.2678 123° Southeast 539 620 41,000  Level Fort Worth Center
11:08PM 32.1131 -101.0953 123° Southeast 539 620 41,000  Level Fort Worth Center
11:10PM 32.0303 -100.9461 123° Southeast 542 624 41,000  Level Fort Worth Center
11:11PM 31.9478 -100.8003 124° Southeast 539 620 41,000  Level Fort Worth Center
11:12PM 31.8664 -100.6531 123° Southeast 534 615 41,000  Level Fort Worth Center
11:13PM 31.7842 -100.5075 124° Southeast 540 621 41,000  Level Fort Worth Center
11:14PM 31.7008 -100.3617 124° Southeast 541 623 41,000  Level Fort Worth Center
11:15PM 31.6192 -100.2153 123° Southeast 538 619 41,000  Level Fort Worth Center
11:16PM 31.5356 -100.0675 124° Southeast 535 616 41,000  Level Fort Worth Center
11:17PM 31.4544 -99.9247 124° Southeast 542 624 41,000  Level Fort Worth Center
11:18PM 31.3714 -99.7803 124° Southeast 532 612 41,000  Level Fort Worth Center
11:19PM 31.2894 -99.6356 124° Southeast 531 611 41,000  Level Fort Worth Center
11:20PM 31.2356 -99.4758 111° Southeast 533 613 41,000  Level Fort Worth Center
11:21PM 31.2003 -99.3103 104° East 526 605 41,000  Level Fort Worth Center
11:22PM 31.1492 -99.0772 104° East 528 608 41,000  Level Houston Center
11:23PM 31.1119 -98.9108 105° East 527 606 41,000  Level Houston Center
11:24PM 31.0739 -98.7433 105° East 529 609 41,000  Level Houston Center
11:25PM 31.0308 -98.5478 104° East 530 610 41,000  Level Houston Center
11:26PM 30.9922 -98.3803 105° East 530 610 41,000  Level Houston Center
11:27PM 30.9533 -98.2144 105° East 529 609 41,000  Level Houston Center
11:28PM 30.9153 -98.0475 105° East 528 608 41,000 -540 Level Houston Center
11:29PM 30.8753 -97.8803 106° East 532 612 40,000 -960 Descending Houston Center
11:30PM 30.8353 -97.7106 105° East 540 621 39,100 -960 Descending Houston Center
11:31PM 30.7856 -97.5442 109° East 546 628 38,100 -1,320 Descending Houston Center
11:32PM 30.7172 -97.3867 117° Southeast 549 632 36,500 -1,560 Descending Houston Center
11:33PM 30.6508 -97.2311 116° Southeast 543 625 35,000 -780 Descending Houston Center
11:34PM 30.5856 -97.0772 116° Southeast 534 615 35,000 -1,020 Level Houston Center
11:35PM 30.5178 -96.9214 117° Southeast 538 619 33,000 -2,640 Descending Houston Center
11:36PM 30.4550 -96.7719 116° Southeast 523 602 29,700 -3,720 Descending Houston Center
11:36PM 30.4358 -96.7317 119° Southeast 509 586 28,400 -4,920 Descending Houston Center
11:37PM 30.3925 -96.6306 116° Southeast 497 572 24,700 -5,700 Descending Houston Center
11:37PM 30.3717 -96.5861 119° Southeast 478 550 22,700 -5,520 Descending Houston Center
11:38PM 30.3314 -96.4922 116° Southeast 484 557 19,100 -5,340 Descending Houston Center
11:39PM 30.3047 -96.4364 119° Southeast 471 542 16,800 -4,920 Descending Houston Center
11:39PM 30.2758 -96.3628 114° Southeast 449 517 14,100 -4,380 Descending Houston Center
11:40PM 30.2525 -96.3117 118° Southeast 424 488 12,400 -3,120 Descending Houston Center
11:40PM 30.2219 -96.2425 117° Southeast 422 486 11,000 -1,500 Descending Houston Center
11:41PM 30.1928 -96.2022 130° Southeast 388 447 10,900 -1,020 Descending Houston Center
11:41PM 30.1408 -96.1708 152° Southeast 370 426 10,000 -900 Descending Houston Center
11:42PM 30.1022 -96.1497 155° Southeast 350 403 10,000  Level Houston Center
11:42PM 30.0678 -96.1028 130° Southeast 354 407 10,000  Level Houston Center
11:43PM 30.0511 -96.0664 118° Southeast 358 412 10,000 -120 Level Houston Center
11:43PM 30.0222 -96.0042 118° Southeast 355 409 9,900 -360 Descending Houston Center
11:44PM 29.9894 -95.9358 119° Southeast 329 379 9,600 -840 Descending Houston Center
11:44PM 29.9775 -95.9106 119° Southeast 333 383 9,100 -1,620 Descending Houston Center
11:45PM 29.9431 -95.8375 119° Southeast 315 362 7,800 -1,620 Descending Houston Center
11:45PM 29.9356 -95.8228 120° Southeast 317 365 7,500 -1,500 Descending Houston Center
11:46PM 29.9203 -95.7919 120° Southeast 313 360 6,900 -2,040 Descending Houston Center
11:46PM 29.8878 -95.7214 118° Southeast 302 348 5,500 -1,440 Descending Houston Center
11:48PM 29.8043 -95.5715 123° Southeast  Level FlightAware Approximate
11:48PM 29.8092 -95.5575 123° Southeast 292 336 2,900  Level Houston Center
11:49PM 29.7900 -95.5111 115° Southeast 262 302 2,500 -780 Descending Houston Center
11:50PM 29.7753 -95.4622 109° East 255 293 2,000 -360 Descending Houston Center
11:50PM 29.7556 -95.4100 113° Southeast 254 292 2,000  Level Houston Center
11:51PM 29.7442 -95.3986 139° Southeast 219 252 2,000 -120 Level Houston Center
11:51PM 29.7164 -95.3633 132° Southeast 222 255 1,900 -360 Descending Houston Center
11:52PM 29.7111 -95.3594 147° Southeast 154 177 1,700 -720 Descending Houston Center
11:52PM 29.6886 -95.3300 131° Southeast 178 205 1,200 -660 Descending Houston Center
11:53PM 29.6781 -95.3175 134° Southeast 127 146 900 -720 Descending Houston Center
11:53PM 29.6658 -95.3028 134° Southeast 143 165 500 -720 Descending Houston Center
11:54PM 29.6569 -95.2936 138° Southeast 128 147 300 33,900 Descending Houston Center
11:54PM 29.6411 -95.2731 132° Southeast 130 150 35,000 49,560 Climbing Houston Center
11:56PM 29.6333 -95.2667 122° Southeast  Level FlightAware Approximate